KMNN/MNN METAR and TAF weather

Enter ICAO airport designator
Station Type Date Time Source
KMNN METAR 2020/09/19 18:53 UTC NOAA

KMNN 191853Z AUTO VRB04KT 10SM CLR 17/03 A3035 RMK AO2 SLP281 T01670033


Station Type Date Time Source
KMNN Decoded METAR 2020/09/19 18:53 UTC NOAA

MARION MUNICIPAL AIRPORT, OH, United States (KMNN) 40-37N 83-04W 301M
Sep 19, 2020 - 02:53 PM EDT / 2020.09.19 1853 UTC
Wind: Variable at 5 MPH (4 KT):0
Visibility: 10 mile(s):0
Sky conditions: clear
Temperature: 62.1 F (16.7 C)
Dew Point: 37.9 F (3.3 C)
Relative Humidity: 40%
Pressure (altimeter): 30.35 in. Hg (1027 hPa)
ob: KMNN 191853Z AUTO VRB04KT 10SM CLR 17/03 A3035 RMK AO2 SLP281 T01670033
cycle: 19

Station Type Date Time Source
KMNN TAF UTC NOAA

Error!

Example: see airport list